Time;durP1;ratioP1;P1;durP2;ratioP2;P2;SDS_P1;SDS_P2;PMS_P1;PMS_P2;Temp;Humidity;BMP_temperature;BMP_pressure;BME280_temperature;BME280_humidity;BME280_pressure;Samples;Min_cycle;Max_cycle;Signal;HPM_P1;HPM_P2
2022/04/12 00:00:31;;;;;;;22.03;21.00;;;10.00;39.10;;;;;;6186952;23;20383;-79
2022/04/12 00:02:57;;;;;;;23.90;22.70;;;10.00;39.00;;;;;;6213980;23;20379;-80
2022/04/12 00:05:23;;;;;;;22.20;21.00;;;10.00;40.00;;;;;;6187109;23;20391;-80
2022/04/12 00:07:48;;;;;;;22.70;21.50;;;10.00;39.90;;;;;;6186756;23;20171;-79
2022/04/12 00:10:14;;;;;;;26.77;25.17;;;10.00;39.60;;;;;;6187593;23;20198;-80
2022/04/12 00:12:41;;;;;;;22.23;20.93;;;9.90;40.60;;;;;;6187739;23;20176;-79
2022/04/12 00:15:08;;;;;;;25.00;23.60;;;9.90;40.30;;;;;;6187659;23;20387;-80
2022/04/12 00:20:32;;;;;;;22.63;21.47;;;9.90;41.00;;;;;;6213944;23;20358;-80
2022/04/12 00:22:58;;;;;;;22.83;21.47;;;9.90;40.40;;;;;;6187139;23;20383;-80
2022/04/12 00:25:27;;;;;;;21.77;20.77;;;9.90;42.00;;;;;;6186050;23;20387;-79
2022/04/12 00:27:55;;;;;;;21.77;20.67;;;9.80;41.10;;;;;;6186803;23;20414;-80
2022/04/12 00:30:22;;;;;;;23.53;22.30;;;9.80;41.60;;;;;;6186775;23;20722;-80
2022/04/12 00:32:50;;;;;;;22.30;21.20;;;9.80;41.30;;;;;;6187070;23;20425;-80
2022/04/12 00:35:17;;;;;;;22.87;21.67;;;9.80;42.20;;;;;;6186324;23;20466;-79
2022/04/12 00:37:43;;;;;;;23.07;21.77;;;9.80;42.40;;;;;;6186726;23;20908;-79
2022/04/12 00:40:09;;;;;;;23.40;22.10;;;9.70;41.10;;;;;;6186908;23;20427;-79
2022/04/12 00:42:35;;;;;;;22.47;21.37;;;9.70;40.60;;;;;;6186551;23;20156;-79
2022/04/12 00:45:01;;;;;;;21.90;20.80;;;9.60;40.90;;;;;;6186775;23;20387;-79
2022/04/12 00:47:26;;;;;;;23.40;22.20;;;9.60;42.50;;;;;;6186072;23;20156;-79
2022/04/12 00:49:52;;;;;;;22.60;21.60;;;9.60;42.20;;;;;;6186046;23;20449;-79
2022/04/12 00:52:18;;;;;;;21.60;20.50;;;9.60;42.20;;;;;;6184930;23;20202;-79
2022/04/12 00:54:45;;;;;;;23.63;22.43;;;9.60;42.20;;;;;;6184299;23;20592;-79
2022/04/12 00:57:12;;;;;;;22.37;21.20;;;9.50;41.40;;;;;;6184587;23;20407;-80
2022/04/12 00:59:38;;;;;;;23.57;22.07;;;9.50;42.10;;;;;;6185651;23;20392;-79
2022/04/12 01:02:06;;;;;;;21.67;20.53;;;9.50;42.00;;;;;;6184734;23;20387;-80
2022/04/12 01:04:33;;;;;;;22.47;21.37;;;9.50;42.10;;;;;;6184019;23;20389;-79
2022/04/12 01:07:00;;;;;;;22.90;21.60;;;9.50;42.10;;;;;;6184750;23;20453;-79
2022/04/12 01:09:26;;;;;;;26.00;24.60;;;9.50;42.20;;;;;;6186558;23;20406;-79
2022/04/12 01:11:57;;;;;;;22.60;21.40;;;9.50;43.00;;;;;;6186420;23;20376;-79
2022/04/12 01:14:24;;;;;;;23.13;21.73;;;9.50;42.60;;;;;;6185931;23;20423;-79
2022/04/12 01:16:50;;;;;;;22.80;21.60;;;9.50;42.10;;;;;;6186525;23;20595;-79
2022/04/12 01:19:16;;;;;;;22.10;21.00;;;9.40;42.10;;;;;;6186256;23;20383;-79
2022/04/12 01:22:06;;;;;;;23.20;22.00;;;9.40;42.60;;;;;;6186035;23;20453;-79
2022/04/12 01:24:33;;;;;;;22.60;21.40;;;9.40;43.10;;;;;;6212442;23;20140;-80
2022/04/12 01:26:59;;;;;;;23.90;22.60;;;9.40;42.80;;;;;;6186344;23;20425;-80
2022/04/12 01:29:26;;;;;;;23.93;22.63;;;9.40;42.00;;;;;;6186026;23;20390;-79
2022/04/12 01:31:51;;;;;;;22.07;20.97;;;9.40;43.10;;;;;;6186332;23;20387;-79
2022/04/12 01:34:17;;;;;;;22.23;21.13;;;9.40;43.20;;;;;;6186702;23;20423;-80
2022/04/12 01:36:43;;;;;;;22.70;21.70;;;9.30;44.00;;;;;;6186720;23;20395;-79
2022/04/12 01:39:09;;;;;;;22.93;21.83;;;9.30;44.00;;;;;;6186265;23;20163;-79
2022/04/12 01:41:34;;;;;;;26.97;25.37;;;9.30;43.20;;;;;;6185049;23;20152;-78
2022/04/12 01:44:00;;;;;;;24.67;23.33;;;9.20;43.50;;;;;;6185110;23;20191;-79
2022/04/12 01:46:27;;;;;;;23.73;22.50;;;9.20;43.40;;;;;;6185218;23;20164;-79
2022/04/12 01:48:52;;;;;;;23.47;21.70;;;9.20;43.90;;;;;;6184459;23;20167;-79
2022/04/12 01:51:18;;;;;;;26.08;24.58;;;9.30;43.10;;;;;;6184095;23;20850;-79
2022/04/12 01:53:44;;;;;;;24.33;22.83;;;9.50;42.20;;;;;;6185055;23;20179;-80
2022/04/12 01:56:10;;;;;;;22.87;21.67;;;9.40;42.00;;;;;;6185907;23;20162;-80
2022/04/12 01:58:36;;;;;;;23.33;22.03;;;9.30;42.20;;;;;;6185503;23;20475;-79
2022/04/12 02:01:03;;;;;;;24.53;23.13;;;9.20;43.30;;;;;;6185846;23;20162;-80
2022/04/12 02:03:28;;;;;;;23.40;22.20;;;9.10;44.10;;;;;;6185841;23;20394;-79
2022/04/12 02:05:54;;;;;;;26.27;24.57;;;9.10;44.50;;;;;;6186179;23;20482;-80
2022/04/12 02:08:21;;;;;;;23.30;22.30;;;9.10;46.10;;;;;;6186005;23;20171;-79
2022/04/12 02:10:47;;;;;;;26.63;25.20;;;9.10;45.80;;;;;;6185747;23;20744;-80
2022/04/12 02:13:12;;;;;;;25.23;23.93;;;9.00;45.90;;;;;;6185993;23;20430;-79
2022/04/12 02:15:38;;;;;;;24.17;22.87;;;9.00;45.70;;;;;;6185473;23;20639;-79
2022/04/12 02:18:04;;;;;;;25.13;23.83;;;9.10;45.40;;;;;;6185913;23;20155;-79
2022/04/12 02:20:30;;;;;;;25.53;24.00;;;9.10;44.90;;;;;;6212020;23;20144;-80
2022/04/12 02:22:55;;;;;;;24.90;23.63;;;9.00;45.20;;;;;;6185746;23;20160;-79
2022/04/12 02:25:21;;;;;;;23.97;22.80;;;9.00;45.10;;;;;;6186061;23;20163;-80
2022/04/12 02:27:47;;;;;;;24.73;23.33;;;8.90;45.40;;;;;;6186026;23;20186;-80
2022/04/12 02:30:13;;;;;;;25.10;23.57;;;8.90;46.20;;;;;;6185868;23;20394;-80
2022/04/12 02:32:39;;;;;;;25.90;24.67;;;8.80;46.90;;;;;;6186411;23;20819;-80
2022/04/12 02:35:06;;;;;;;24.90;23.70;;;8.80;47.30;;;;;;6185486;23;20474;-79
2022/04/12 02:37:31;;;;;;;23.97;22.77;;;8.70;46.90;;;;;;6185366;23;20383;-79
2022/04/12 02:39:57;;;;;;;24.00;22.77;;;8.70;46.30;;;;;;6185705;23;20453;-79
2022/04/12 02:42:23;;;;;;;24.60;23.30;;;8.70;46.30;;;;;;6185783;23;20160;-80
2022/04/12 02:44:48;;;;;;;24.87;23.67;;;8.70;45.60;;;;;;6185798;23;20163;-79
2022/04/12 02:47:14;;;;;;;25.00;23.67;;;8.80;44.60;;;;;;6210565;23;20163;-79
2022/04/12 02:49:39;;;;;;;25.23;24.00;;;8.80;44.60;;;;;;6185954;23;20549;-79
2022/04/12 02:52:06;;;;;;;24.90;23.60;;;8.70;45.60;;;;;;6185437;23;20180;-80
2022/04/12 02:54:31;;;;;;;26.17;24.57;;;8.70;46.70;;;;;;6185451;23;20184;-79
2022/04/12 02:56:57;;;;;;;25.37;24.03;;;8.70;46.50;;;;;;6186071;23;20783;-80
2022/04/12 02:59:23;;;;;;;24.50;23.20;;;8.70;46.50;;;;;;6186054;23;20271;-79
2022/04/12 03:01:49;;;;;;;28.70;27.30;;;8.60;46.30;;;;;;6185955;23;20383;-79
2022/04/12 03:04:15;;;;;;;26.73;25.23;;;8.60;46.40;;;;;;6186821;23;20401;-79
2022/04/12 03:06:40;;;;;;;28.07;26.37;;;8.60;45.50;;;;;;6213569;23;20215;-79
2022/04/12 03:09:06;;;;;;;27.63;26.10;;;8.60;45.30;;;;;;6188985;23;20158;-79
2022/04/12 03:11:32;;;;;;;25.83;24.53;;;8.60;45.40;;;;;;6188525;23;20198;-79
2022/04/12 03:13:57;;;;;;;27.40;26.10;;;8.60;45.30;;;;;;6188097;23;20238;-80
2022/04/12 03:16:23;;;;;;;25.80;24.60;;;8.70;45.10;;;;;;6188428;23;20198;-79
2022/04/12 03:18:49;;;;;;;26.80;25.47;;;8.60;44.90;;;;;;6188143;23;20515;-79
2022/04/12 03:21:14;;;;;;;27.60;26.20;;;8.70;44.90;;;;;;6188278;23;20152;-79
2022/04/12 03:23:40;;;;;;;27.37;26.07;;;8.70;45.10;;;;;;6188420;23;20162;-80
2022/04/12 03:26:05;;;;;;;27.43;25.93;;;8.60;44.90;;;;;;6188307;23;20211;-80
2022/04/12 03:28:33;;;;;;;27.17;25.60;;;8.60;45.20;;;;;;6188718;23;20166;-79
2022/04/12 03:31:01;;;;;;;30.00;28.50;;;8.60;45.80;;;;;;6188623;23;20238;-79
2022/04/12 03:33:27;;;;;;;27.57;26.20;;;8.60;46.40;;;;;;6188480;23;20746;-80
2022/04/12 03:35:52;;;;;;;27.53;26.10;;;8.60;46.40;;;;;;6188263;23;20394;-80
2022/04/12 03:38:18;;;;;;;27.77;26.40;;;8.60;46.60;;;;;;6215298;23;20144;-80
2022/04/12 03:40:46;;;;;;;27.37;25.97;;;8.50;46.80;;;;;;6188251;23;20156;-80
2022/04/12 03:43:12;;;;;;;27.63;26.10;;;8.50;46.80;;;;;;6188405;23;20160;-79
2022/04/12 03:45:38;;;;;;;26.63;25.40;;;8.50;47.00;;;;;;6188617;23;20383;-80
2022/04/12 03:48:04;;;;;;;30.37;28.73;;;8.50;47.10;;;;;;6188804;23;20395;-80
2022/04/12 03:50:31;;;;;;;28.10;26.60;;;8.50;47.20;;;;;;6189731;23;20192;-79
2022/04/12 03:52:56;;;;;;;27.43;26.00;;;8.50;47.30;;;;;;6190055;23;20427;-79
2022/04/12 03:55:31;;;;;;;29.30;27.90;;;8.40;47.50;;;;;;6189635;23;20510;-77
2022/04/12 03:58:05;;;;;;;29.63;27.92;;;8.50;46.90;;;;;;6214477;23;20389;-76
2022/04/12 04:00:49;;;;;;;28.17;26.87;;;8.40;47.50;;;;;;6189346;23;20206;-82
2022/04/12 04:03:17;;;;;;;28.00;26.70;;;8.30;47.60;;;;;;6189020;23;20847;-82
2022/04/12 04:05:43;;;;;;;28.90;27.20;;;8.30;47.90;;;;;;6188746;23;20717;-83
2022/04/12 04:08:09;;;;;;;28.47;27.00;;;8.30;48.00;;;;;;6188315;23;20399;-83
2022/04/12 04:10:35;;;;;;;28.17;26.90;;;8.30;48.40;;;;;;6188731;23;20434;-81
2022/04/12 04:13:01;;;;;;;27.97;26.53;;;8.30;48.50;;;;;;6188924;23;20176;-80
2022/04/12 04:15:27;;;;;;;28.00;26.60;;;8.30;48.50;;;;;;6189068;23;20495;-80
2022/04/12 04:17:52;;;;;;;26.80;25.50;;;8.30;48.70;;;;;;6216154;23;20371;-80
2022/04/12 04:20:19;;;;;;;27.57;25.57;;;8.30;49.00;;;;;;6189579;23;20239;-80
2022/04/12 04:22:45;;;;;;;25.57;24.33;;;8.20;49.40;;;;;;6187994;23;20243;-79
2022/04/12 04:25:12;;;;;;;26.77;25.50;;;8.20;49.60;;;;;;6189000;23;20422;-80
2022/04/12 04:27:41;;;;;;;28.97;27.57;;;8.20;50.10;;;;;;6188803;23;20394;-80
2022/04/12 04:30:08;;;;;;;27.57;26.00;;;8.10;50.80;;;;;;6188969;23;20391;-79
2022/04/12 04:32:37;;;;;;;26.37;25.00;;;8.10;50.30;;;;;;6188630;23;20906;-79
2022/04/12 04:35:04;;;;;;;27.93;26.37;;;8.20;49.80;;;;;;6188752;23;20721;-80
2022/04/12 04:37:29;;;;;;;27.13;25.67;;;8.20;49.40;;;;;;6188732;23;20382;-80
2022/04/12 04:39:55;;;;;;;26.80;25.50;;;8.20;49.20;;;;;;6189039;23;20383;-79
2022/04/12 04:42:22;;;;;;;28.00;26.37;;;8.20;49.50;;;;;;6188979;23;20648;-80
2022/04/12 04:44:48;;;;;;;26.87;25.47;;;8.20;49.10;;;;;;6188673;23;20234;-80
2022/04/12 04:47:13;;;;;;;29.40;27.40;;;8.20;49.10;;;;;;6189035;23;20391;-80
2022/04/12 04:49:39;;;;;;;25.60;24.40;;;8.20;49.60;;;;;;6188687;23;20235;-79
2022/04/12 04:52:05;;;;;;;26.23;24.73;;;8.10;49.40;;;;;;6188778;23;20386;-79
2022/04/12 04:54:31;;;;;;;27.20;25.80;;;8.10;49.20;;;;;;6188471;23;20556;-80
2022/04/12 04:56:56;;;;;;;30.83;29.13;;;8.10;48.80;;;;;;6189301;23;20395;-79
2022/04/12 04:59:22;;;;;;;27.70;25.93;;;8.10;49.60;;;;;;6189034;23;20156;-80
2022/04/12 05:01:48;;;;;;;27.10;25.60;;;8.00;49.50;;;;;;6188236;23;20158;-80
2022/04/12 05:04:13;;;;;;;27.80;26.37;;;8.10;50.20;;;;;;6214305;23;20227;-80
2022/04/12 05:06:39;;;;;;;30.00;28.20;;;8.10;50.80;;;;;;6188877;23;20546;-79
2022/04/12 05:09:05;;;;;;;28.43;26.93;;;8.20;49.70;;;;;;6189010;23;20209;-79
2022/04/12 05:11:31;;;;;;;27.27;25.80;;;8.10;50.20;;;;;;6188855;23;20164;-81
2022/04/12 05:13:57;;;;;;;27.60;26.20;;;8.10;50.10;;;;;;6188704;23;20253;-80
2022/04/12 05:16:23;;;;;;;26.60;25.20;;;8.20;50.10;;;;;;6215703;23;20379;-80
2022/04/12 05:18:51;;;;;;;28.03;26.50;;;8.20;50.10;;;;;;6189095;23;20466;-80
2022/04/12 05:21:17;;;;;;;29.80;28.10;;;8.20;50.10;;;;;;6214029;23;20156;-80
2022/04/12 05:23:43;;;;;;;31.55;29.85;;;8.20;50.80;;;;;;6187223;23;20413;-81
2022/04/12 05:26:10;;;;;;;25.63;24.23;;;8.20;50.50;;;;;;6188645;23;20192;-80
2022/04/12 05:28:36;;;;;;;27.17;25.77;;;8.30;49.80;;;;;;6188325;23;20391;-79
2022/04/12 05:31:01;;;;;;;25.57;24.00;;;8.30;49.70;;;;;;6188742;23;20243;-79
2022/04/12 05:33:27;;;;;;;27.60;25.70;;;8.30;49.20;;;;;;6188418;23;20484;-79
2022/04/12 05:35:53;;;;;;;24.80;23.57;;;8.20;49.70;;;;;;6213919;23;20167;-79
2022/04/12 05:38:18;;;;;;;25.53;24.23;;;8.30;50.20;;;;;;6188793;23;20191;-80
2022/04/12 05:40:45;;;;;;;25.97;24.57;;;8.30;50.80;;;;;;6188662;23;20162;-80
2022/04/12 05:43:11;;;;;;;25.00;23.60;;;8.30;50.00;;;;;;6189558;23;20531;-79
2022/04/12 05:45:36;;;;;;;27.57;26.17;;;8.30;49.80;;;;;;6189056;23;20383;-80
2022/04/12 05:48:02;;;;;;;25.10;23.63;;;8.20;50.00;;;;;;6188814;23;20850;-80
2022/04/12 05:50:28;;;;;;;24.87;23.67;;;8.30;49.50;;;;;;6188899;23;20379;-80
2022/04/12 05:52:55;;;;;;;27.23;25.37;;;8.30;49.30;;;;;;6188559;23;20564;-80
2022/04/12 05:55:22;;;;;;;25.50;24.10;;;8.40;49.10;;;;;;6188663;23;20478;-80
2022/04/12 05:58:03;;;;;;;25.73;24.40;;;8.40;48.80;;;;;;6188751;23;20383;-80
2022/04/12 06:00:30;;;;;;;27.60;25.80;;;8.50;48.80;;;;;;6188401;23;20383;-80
2022/04/12 06:02:57;;;;;;;24.57;23.00;;;8.50;49.50;;;;;;6183898;23;20391;-79
2022/04/12 06:05:24;;;;;;;25.53;24.07;;;8.50;49.30;;;;;;6188141;23;20450;-78
2022/04/12 06:07:50;;;;;;;25.40;23.93;;;8.50;48.50;;;;;;6187688;23;20410;-78
2022/04/12 06:10:18;;;;;;;25.00;23.60;;;8.50;47.20;;;;;;6188488;23;20391;-79
2022/04/12 06:12:43;;;;;;;25.03;23.53;;;8.60;47.40;;;;;;6187723;23;20804;-79
2022/04/12 06:15:09;;;;;;;24.60;23.23;;;8.60;47.60;;;;;;6188002;23;20391;-79
2022/04/12 06:17:36;;;;;;;24.97;23.73;;;8.60;48.00;;;;;;6188734;23;20159;-79
2022/04/12 06:20:12;;;;;;;23.90;22.57;;;8.70;47.80;;;;;;6188188;23;20887;-79
2022/04/12 06:22:39;;;;;;;23.10;22.00;;;8.70;47.70;;;;;;6187742;23;20379;-79
2022/04/12 06:25:06;;;;;;;23.60;22.40;;;8.70;48.50;;;;;;6187479;23;20384;-79
2022/04/12 06:27:39;;;;;;;23.60;22.50;;;8.70;48.30;;;;;;6187717;23;20378;-80
2022/04/12 06:30:14;;;;;;;24.40;23.10;;;8.80;47.90;;;;;;6187496;23;20474;-79
2022/04/12 06:32:40;;;;;;;24.47;22.80;;;8.90;46.80;;;;;;6187576;23;20763;-79
2022/04/12 06:35:07;;;;;;;25.83;24.33;;;9.00;44.80;;;;;;6187405;23;20692;-79
2022/04/12 06:37:33;;;;;;;24.53;23.23;;;9.10;46.80;;;;;;6187485;23;20394;-79
2022/04/12 06:40:00;;;;;;;25.27;23.77;;;9.20;45.30;;;;;;6188858;23;20386;-78
2022/04/12 06:42:26;;;;;;;26.53;25.37;;;9.20;45.30;;;;;;6189696;23;20383;-79
2022/04/12 06:44:52;;;;;;;25.70;24.20;;;9.20;46.40;;;;;;6189227;23;20694;-79
2022/04/12 06:47:18;;;;;;;26.90;25.67;;;9.30;46.40;;;;;;6189706;23;20390;-79
2022/04/12 06:49:49;;;;;;;26.13;24.53;;;9.30;45.50;;;;;;6189310;23;20387;-79
2022/04/12 06:52:17;;;;;;;30.27;28.67;;;9.40;46.20;;;;;;6189333;23;20397;-79
2022/04/12 06:54:43;;;;;;;27.40;25.70;;;9.50;46.00;;;;;;6189095;23;20427;-80
2022/04/12 06:57:09;;;;;;;25.73;24.50;;;9.50;45.60;;;;;;6189420;23;20390;-79
2022/04/12 06:59:35;;;;;;;26.13;24.60;;;9.70;44.80;;;;;;6190029;23;20445;-78
2022/04/12 07:02:01;;;;;;;25.13;23.83;;;9.70;43.80;;;;;;6189160;23;20379;-79
2022/04/12 07:04:30;;;;;;;27.30;25.83;;;9.80;44.90;;;;;;6216390;23;20453;-78
2022/04/12 07:06:56;;;;;;;25.53;24.23;;;9.90;41.10;;;;;;6189280;23;20403;-79
2022/04/12 07:09:29;;;;;;;26.30;24.90;;;10.10;40.90;;;;;;6189924;23;20399;-79
2022/04/12 07:11:59;;;;;;;27.57;25.63;;;10.20;39.60;;;;;;6189194;23;20391;-79
2022/04/12 07:14:27;;;;;;;24.57;23.47;;;10.20;39.80;;;;;;6189296;23;20422;-79
2022/04/12 07:16:53;;;;;;;27.00;25.70;;;10.30;39.20;;;;;;6189145;23;20394;-79
2022/04/12 07:19:19;;;;;;;28.57;26.87;;;10.40;37.90;;;;;;6189685;23;20783;-79
2022/04/12 07:21:44;;;;;;;26.67;25.30;;;10.40;38.30;;;;;;6189338;23;20235;-79
2022/04/12 07:24:11;;;;;;;25.23;23.93;;;10.50;38.10;;;;;;6189700;23;20224;-80
2022/04/12 07:26:36;;;;;;;26.85;25.35;;;10.60;38.50;;;;;;6189115;23;20849;-80
2022/04/12 07:29:03;;;;;;;26.30;25.00;;;10.70;37.20;;;;;;6216190;23;20220;-80
2022/04/12 07:31:29;;;;;;;27.03;25.63;;;10.70;38.00;;;;;;6189742;23;20525;-80
2022/04/12 07:33:55;;;;;;;25.43;23.97;;;10.80;38.00;;;;;;6189327;23;20926;-80
2022/04/12 07:36:21;;;;;;;26.23;24.93;;;10.80;37.20;;;;;;6216242;23;20382;-80
2022/04/12 07:38:48;;;;;;;27.67;25.77;;;10.90;38.60;;;;;;6189109;23;20775;-79
2022/04/12 07:41:15;;;;;;;26.67;24.97;;;11.00;37.50;;;;;;6189601;23;20387;-80
2022/04/12 07:43:42;;;;;;;25.90;24.60;;;11.00;35.50;;;;;;6189078;23;20469;-79
2022/04/12 07:46:08;;;;;;;24.10;23.00;;;11.00;37.30;;;;;;6189701;23;20395;-79
2022/04/12 07:48:34;;;;;;;27.20;25.57;;;11.10;37.30;;;;;;6189113;23;20445;-79
2022/04/12 07:50:59;;;;;;;24.43;23.23;;;11.20;37.10;;;;;;6188862;23;20391;-80
2022/04/12 07:53:25;;;;;;;25.97;24.67;;;11.20;38.90;;;;;;6189192;23;20183;-79
2022/04/12 07:55:51;;;;;;;25.10;23.90;;;11.30;37.60;;;;;;6189079;23;20162;-80
2022/04/12 07:58:16;;;;;;;25.67;24.40;;;11.40;38.40;;;;;;6189535;23;20551;-79
2022/04/12 08:00:42;;;;;;;28.33;26.27;;;11.50;37.00;;;;;;6189068;23;20206;-80
2022/04/12 08:03:08;;;;;;;26.83;25.43;;;11.50;35.40;;;;;;6189419;23;20155;-79
2022/04/12 08:05:35;;;;;;;27.63;26.10;;;11.60;37.20;;;;;;6188611;23;20160;-80
2022/04/12 08:08:01;;;;;;;25.93;24.50;;;11.60;36.80;;;;;;6188658;23;20418;-81
2022/04/12 08:10:27;;;;;;;25.70;24.23;;;11.70;34.90;;;;;;6188335;23;20390;-80
2022/04/12 08:12:53;;;;;;;25.60;24.10;;;11.80;35.50;;;;;;6188563;23;20760;-80
2022/04/12 08:15:19;;;;;;;24.97;23.77;;;11.90;34.90;;;;;;6188305;23;20442;-80
2022/04/12 08:17:45;;;;;;;24.87;23.47;;;12.00;36.50;;;;;;6188695;23;20149;-80
2022/04/12 08:20:13;;;;;;;24.60;22.90;;;12.00;35.20;;;;;;6189049;23;20788;-80
2022/04/12 08:22:40;;;;;;;26.23;24.70;;;12.20;34.30;;;;;;6188203;23;20180;-80
2022/04/12 08:25:08;;;;;;;27.40;25.43;;;12.20;35.20;;;;;;6188583;23;20707;-80
2022/04/12 08:27:34;;;;;;;27.47;25.87;;;12.30;33.50;;;;;;6188374;23;20482;-80
2022/04/12 08:30:00;;;;;;;25.93;24.33;;;12.40;34.60;;;;;;6188705;23;20411;-80
2022/04/12 08:32:25;;;;;;;25.50;24.00;;;12.40;33.60;;;;;;6188236;23;20723;-80
2022/04/12 08:34:53;;;;;;;25.40;24.20;;;12.50;34.10;;;;;;6188364;23;20187;-80
2022/04/12 08:37:19;;;;;;;26.20;24.60;;;12.50;34.40;;;;;;6188292;23;20452;-80
2022/04/12 08:39:44;;;;;;;26.27;24.37;;;12.60;34.90;;;;;;6188372;23;20458;-80
2022/04/12 08:42:10;;;;;;;25.53;24.33;;;12.70;34.30;;;;;;6188408;23;20160;-81
2022/04/12 08:44:36;;;;;;;25.70;24.27;;;12.70;34.40;;;;;;6215108;23;20144;-81
2022/04/12 08:47:06;;;;;;;26.03;24.03;;;12.80;32.90;;;;;;6188490;23;20484;-80
2022/04/12 08:49:32;;;;;;;23.93;22.63;;;13.00;31.20;;;;;;6188633;23;20387;-79
2022/04/12 08:51:58;;;;;;;24.10;23.10;;;13.20;32.40;;;;;;6188436;23;20774;-81
2022/04/12 08:54:25;;;;;;;24.63;23.47;;;13.20;32.50;;;;;;6187899;23;20803;-81
2022/04/12 08:56:52;;;;;;;25.50;24.30;;;13.30;32.20;;;;;;6188347;23;20429;-81
2022/04/12 08:59:18;;;;;;;25.17;23.87;;;13.40;31.20;;;;;;6188129;23;20397;-82
2022/04/12 09:01:46;;;;;;;27.30;25.47;;;13.60;30.00;;;;;;6187648;23;20375;-80
2022/04/12 09:04:12;;;;;;;27.10;25.70;;;13.70;29.40;;;;;;6181092;23;20418;-81
2022/04/12 09:06:56;;;;;;;24.40;23.20;;;13.80;29.30;;;;;;6209131;23;20853;-81
2022/04/12 09:09:25;;;;;;;23.93;22.73;;;13.90;29.30;;;;;;6188245;23;20464;-80
2022/04/12 09:12:08;;;;;;;27.10;25.50;;;14.00;29.30;;;;;;6188383;23;20391;-80
2022/04/12 09:14:57;;;;;;;26.47;25.10;;;14.10;28.70;;;;;;6187770;23;20437;-81
2022/04/12 09:17:37;;;;;;;26.10;24.50;;;14.10;29.30;;;;;;6187627;23;20744;-83
2022/04/12 09:20:10;;;;;;;26.30;24.90;;;14.10;29.70;;;;;;6188166;23;20398;-84
2022/04/12 09:22:35;;;;;;;26.27;24.90;;;14.10;29.50;;;;;;6188572;23;20514;-81
2022/04/12 09:25:04;;;;;;;25.03;23.63;;;14.20;29.70;;;;;;6189430;23;20415;-79
2022/04/12 09:27:32;;;;;;;26.87;24.13;;;14.30;28.60;;;;;;6189811;23;20686;-80
2022/04/12 09:30:03;;;;;;;26.10;24.73;;;14.40;29.50;;;;;;6190011;23;20422;-75
2022/04/12 09:32:34;;;;;;;25.30;23.93;;;14.50;28.80;;;;;;6214669;23;20379;-76
2022/04/12 09:35:00;;;;;;;26.60;23.90;;;14.50;28.80;;;;;;6189377;23;20395;-76
2022/04/12 09:37:28;;;;;;;26.47;24.47;;;14.70;27.90;;;;;;6189563;23;20390;-77
2022/04/12 09:39:59;;;;;;;25.07;23.77;;;14.80;27.80;;;;;;6187687;23;20283;-77
2022/04/12 09:42:49;;;;;;;24.90;23.07;;;15.00;27.80;;;;;;6212906;23;20379;-77
2022/04/12 09:45:25;;;;;;;23.30;22.20;;;15.00;27.90;;;;;;6212720;23;20720;-77
2022/04/12 09:47:52;;;;;;;24.10;22.60;;;15.20;27.00;;;;;;6187471;23;20711;-76
2022/04/12 09:50:23;;;;;;;29.67;24.60;;;15.30;26.80;;;;;;6214627;23;20394;-77
2022/04/12 09:52:56;;;;;;;26.80;25.10;;;15.40;27.20;;;;;;6187204;23;20714;-77
2022/04/12 09:55:38;;;;;;;24.60;23.10;;;15.50;26.90;;;;;;6187622;23;20393;-77
2022/04/12 09:58:06;;;;;;;24.47;23.07;;;15.60;27.60;;;;;;6187793;23;20723;-77
2022/04/12 10:00:32;;;;;;;24.53;22.90;;;15.80;26.10;;;;;;6187673;23;20469;-76
2022/04/12 10:03:05;;;;;;;23.17;22.17;;;15.90;26.30;;;;;;6187350;23;20471;-75
2022/04/12 10:05:31;;;;;;;24.83;23.03;;;15.90;26.70;;;;;;6187592;23;20447;-76
2022/04/12 10:07:58;;;;;;;25.20;23.77;;;16.00;25.90;;;;;;6187334;23;20778;-76
2022/04/12 10:10:25;;;;;;;24.27;22.97;;;15.90;26.50;;;;;;6187356;23;20692;-77
2022/04/12 10:12:53;;;;;;;24.33;22.97;;;16.00;26.20;;;;;;6187302;23;20387;-77
2022/04/12 10:15:20;;;;;;;23.40;22.30;;;16.00;25.50;;;;;;6189684;23;20434;-76
2022/04/12 10:17:48;;;;;;;23.93;22.83;;;16.10;25.70;;;;;;6190976;23;20379;-75
2022/04/12 10:20:16;;;;;;;25.30;23.80;;;16.20;25.60;;;;;;6190908;23;20390;-76
2022/04/12 10:22:42;;;;;;;27.13;25.77;;;16.40;24.80;;;;;;6191408;23;20383;-77
2022/04/12 10:25:10;;;;;;;23.47;22.17;;;16.50;24.60;;;;;;6190943;23;20703;-76
2022/04/12 10:27:37;;;;;;;24.40;22.80;;;16.60;24.80;;;;;;6190766;23;20672;-77
2022/04/12 10:30:26;;;;;;;23.73;22.63;;;16.80;24.70;;;;;;6191050;23;20190;-76
2022/04/12 10:33:06;;;;;;;22.60;21.60;;;16.90;24.10;;;;;;6191089;23;20482;-76
2022/04/12 10:35:44;;;;;;;22.50;21.50;;;16.90;24.60;;;;;;6191308;23;20394;-77
2022/04/12 10:38:14;;;;;;;23.00;21.90;;;17.00;23.00;;;;;;6215907;23;20403;-77
2022/04/12 10:40:45;;;;;;;22.10;21.00;;;17.10;22.90;;;;;;6190694;23;20470;-77
2022/04/12 10:43:15;;;;;;;23.27;22.13;;;17.10;23.00;;;;;;6190465;23;20390;-76
2022/04/12 10:45:46;;;;;;;22.30;21.30;;;17.20;23.10;;;;;;6190602;23;20478;-81
2022/04/12 10:48:19;;;;;;;22.63;21.47;;;17.20;23.10;;;;;;6191035;23;20394;-81
2022/04/12 10:50:46;;;;;;;21.80;20.70;;;17.30;22.70;;;;;;6191074;23;20437;-81
2022/04/12 10:53:12;;;;;;;22.53;21.37;;;17.40;22.60;;;;;;6190994;23;20733;-81
2022/04/12 10:55:41;;;;;;;22.43;21.00;;;17.40;23.10;;;;;;6191205;23;20391;-81
2022/04/12 10:58:28;;;;;;;19.70;18.70;;;17.40;22.20;;;;;;6191275;23;20159;-81
2022/04/12 11:00:54;;;;;;;21.43;20.43;;;17.40;22.50;;;;;;6191347;23;20451;-82
2022/04/12 11:03:46;;;;;;;20.30;19.10;;;17.50;21.60;;;;;;6191112;23;20391;-81
2022/04/12 11:06:12;;;;;;;21.60;20.70;;;17.60;21.00;;;;;;6200192;23;20398;-82
2022/04/12 11:08:38;;;;;;;21.90;20.70;;;17.60;21.50;;;;;;6190690;23;20402;-82
2022/04/12 11:11:04;;;;;;;22.17;21.17;;;17.70;20.20;;;;;;6215560;23;20394;-82
2022/04/12 11:13:35;;;;;;;21.87;20.77;;;18.00;21.00;;;;;;6215556;23;20263;-82
2022/04/12 11:16:01;;;;;;;27.53;25.10;;;18.00;21.50;;;;;;6190556;23;20379;-81
2022/04/12 11:18:59;;;;;;;21.70;20.60;;;18.00;21.00;;;;;;6190554;23;20470;-82
2022/04/12 11:21:27;;;;;;;21.33;20.33;;;18.10;21.30;;;;;;6190451;23;20735;-81
2022/04/12 11:24:01;;;;;;;21.30;20.27;;;18.10;20.70;;;;;;6190239;23;20395;-80
2022/04/12 11:26:44;;;;;;;22.80;21.70;;;18.00;20.90;;;;;;6189235;23;20391;-81
2022/04/12 11:29:14;;;;;;;23.17;21.87;;;18.00;21.20;;;;;;6189133;23;20445;-81
2022/04/12 11:31:45;;;;;;;25.23;23.90;;;18.10;20.40;;;;;;6188863;23;20922;-81
2022/04/12 11:34:11;;;;;;;22.70;21.50;;;18.20;20.50;;;;;;6188727;23;20427;-76
2022/04/12 11:36:39;;;;;;;33.83;25.30;;;18.30;20.50;;;;;;6215102;23;20379;-76
2022/04/12 11:39:05;;;;;;;21.90;20.80;;;18.40;20.60;;;;;;6215275;23;20375;-76
2022/04/12 11:41:32;;;;;;;22.70;21.70;;;18.50;19.10;;;;;;6188445;23;20387;-76
2022/04/12 11:44:02;;;;;;;21.00;20.20;;;18.40;20.60;;;;;;6188360;23;20406;-77
2022/04/12 11:46:30;;;;;;;22.37;20.97;;;18.50;18.90;;;;;;6188949;23;20721;-77
2022/04/12 11:49:11;;;;;;;22.47;21.27;;;18.50;20.70;;;;;;6188456;23;20735;-78
2022/04/12 11:51:47;;;;;;;24.10;22.47;;;18.50;19.70;;;;;;6215680;23;20371;-77
2022/04/12 11:54:26;;;;;;;22.50;21.33;;;18.60;19.00;;;;;;6185883;23;20426;-77
2022/04/12 11:57:03;;;;;;;496.83;65.03;;;18.50;18.40;;;;;;6188636;23;20465;-77
2022/04/12 11:59:29;;;;;;;23.73;22.00;;;18.70;18.70;;;;;;6188704;23;20394;-77
2022/04/12 12:02:01;;;;;;;32.93;25.67;;;18.70;19.60;;;;;;6188172;23;20380;-77
2022/04/12 12:04:35;;;;;;;24.03;22.40;;;18.60;20.60;;;;;;6187938;23;20732;-76
2022/04/12 12:07:05;;;;;;;26.50;23.30;;;18.60;19.60;;;;;;6188507;23;20426;-76
2022/04/12 12:09:34;;;;;;;24.23;22.47;;;18.60;21.20;;;;;;6188455;23;21060;-77
2022/04/12 12:12:04;;;;;;;22.70;21.50;;;18.60;20.10;;;;;;6189083;23;20783;-77
2022/04/12 12:14:31;;;;;;;23.27;21.85;;;18.70;20.30;;;;;;6186941;23;20481;-77
2022/04/12 12:17:05;;;;;;;23.10;22.20;;;18.80;19.10;;;;;;6188471;23;20156;-77
2022/04/12 12:19:33;;;;;;;22.80;21.50;;;19.00;18.30;;;;;;6215026;23;20449;-76
2022/04/12 12:22:03;;;;;;;23.90;22.43;;;19.00;19.90;;;;;;6187954;23;20720;-76
2022/04/12 12:24:29;;;;;;;22.20;21.30;;;19.00;20.60;;;;;;6214858;23;20740;-76
2022/04/12 12:26:57;;;;;;;21.67;20.70;;;19.10;18.50;;;;;;6188215;23;20417;-76
2022/04/12 12:29:26;;;;;;;22.13;20.97;;;19.20;19.00;;;;;;6188384;23;20778;-75
2022/04/12 12:31:58;;;;;;;22.67;21.33;;;19.40;19.80;;;;;;6187845;23;20850;-77
2022/04/12 12:34:32;;;;;;;21.50;20.60;;;19.30;20.40;;;;;;6188263;23;20427;-76
2022/04/12 12:37:05;;;;;;;22.80;21.67;;;19.40;19.70;;;;;;6187822;23;20715;-77
2022/04/12 12:39:37;;;;;;;21.73;20.93;;;19.50;19.20;;;;;;6188373;23;20383;-77